Time;durP1;ratioP1;P1;durP2;ratioP2;P2;SDS_P1;SDS_P2;PMS_P1;PMS_P2;Temp;Humidity;BMP_temperature;BMP_pressure;BME280_temperature;BME280_humidity;BME280_pressure;Samples;Min_cycle;Max_cycle;Signal;HPM_P1;HPM_P2
2022/07/21 00:01:51;;;;;;;10.82;0.88;;;;;;;14.22;100.00;99549.52;1751512;80;21045;-53
2022/07/21 00:04:18;;;;;;;2.95;0.40;;;;;;;14.18;100.00;99544.81;1752972;80;21096;-54
2022/07/21 00:06:46;;;;;;;10.43;0.60;;;;;;;14.16;100.00;99541.33;1776028;78;21613;-54
2022/07/21 00:09:14;;;;;;;12.13;0.70;;;;;;;14.18;100.00;99546.16;1765961;79;20985;-54
2022/07/21 00:11:40;;;;;;;1.00;0.40;;;;;;;14.15;100.00;99549.06;1751676;80;21104;-54
2022/07/21 00:14:08;;;;;;;11.30;0.93;;;;;;;14.12;100.00;99541.13;1739493;81;22159;-53
2022/07/21 00:16:34;;;;;;;1.45;0.30;;;;;;;14.10;100.00;99540.88;1777092;79;21056;-54
2022/07/21 00:19:02;;;;;;;0.90;0.30;;;;;;;14.09;100.00;99544.06;1734859;80;21563;-54
2022/07/21 00:21:29;;;;;;;2.95;0.30;;;;;;;14.06;100.00;99552.37;1780291;79;21146;-53
2022/07/21 00:23:55;;;;;;;2.25;0.33;;;;;;;14.00;100.00;99550.95;1782171;79;21602;-54
2022/07/21 00:26:22;;;;;;;1.55;0.30;;;;;;;13.93;100.00;99555.51;1783687;78;21057;-53
2022/07/21 00:28:48;;;;;;;1.37;0.30;;;;;;;13.86;100.00;99549.63;1777127;79;21519;-53
2022/07/21 00:31:15;;;;;;;0.68;0.30;;;;;;;13.83;100.00;99549.82;1772047;79;21080;-54
2022/07/21 00:33:43;;;;;;;1.07;0.30;;;;;;;13.81;100.00;99553.10;1785345;79;22046;-53
2022/07/21 00:36:09;;;;;;;0.33;0.30;;;;;;;13.80;100.00;99551.84;1767907;80;20952;-54
2022/07/21 00:38:36;;;;;;;3.02;0.40;;;;;;;13.78;100.00;99549.74;1762971;80;20917;-53
2022/07/21 00:41:02;;;;;;;0.40;0.30;;;;;;;13.74;100.00;99554.95;1766670;80;20906;-53
2022/07/21 00:43:29;;;;;;;0.40;0.30;;;;;;;13.66;100.00;99557.28;1760827;79;21040;-54
2022/07/21 00:45:55;;;;;;;4.17;0.72;;;;;;;13.54;100.00;99558.44;1766259;80;22277;-53
2022/07/21 00:48:23;;;;;;;0.90;0.28;;;;;;;13.47;100.00;99557.57;1761288;79;21052;-53
2022/07/21 00:50:49;;;;;;;0.50;0.30;;;;;;;13.41;100.00;99552.56;1764259;80;20965;-53
2022/07/21 00:53:16;;;;;;;1.05;0.20;;;;;;;13.38;100.00;99550.03;1766530;80;21419;-53
2022/07/21 00:55:46;;;;;;;0.50;0.28;;;;;;;13.34;100.00;99547.16;1765523;80;20923;-54
2022/07/21 00:58:12;;;;;;;1.75;0.30;;;;;;;13.32;100.00;99545.89;1768724;80;22232;-54
2022/07/21 01:00:40;;;;;;;0.60;0.30;;;;;;;13.31;100.00;99548.69;1762254;80;20873;-54
2022/07/21 01:03:06;;;;;;;4.97;0.30;;;;;;;13.33;100.00;99542.71;1763664;80;21290;-54
2022/07/21 01:05:33;;;;;;;2.33;0.25;;;;;;;13.33;100.00;99544.06;1765013;80;21447;-54
2022/07/21 01:08:02;;;;;;;0.62;0.30;;;;;;;13.32;100.00;99545.02;1764951;80;20949;-53
2022/07/21 01:10:30;;;;;;;1.42;0.30;;;;;;;13.31;100.00;99550.91;1764029;80;21447;-53
2022/07/21 01:12:56;;;;;;;1.52;0.28;;;;;;;13.30;100.00;99546.47;1761399;80;20996;-53
2022/07/21 01:15:23;;;;;;;0.95;0.30;;;;;;;13.28;100.00;99543.46;1732843;80;20987;-53
2022/07/21 01:17:51;;;;;;;0.82;0.20;;;;;;;13.27;100.00;99550.70;1765657;79;21371;-53
2022/07/21 01:20:21;;;;;;;1.30;0.30;;;;;;;13.23;100.00;99551.87;1758838;79;21136;-53
2022/07/21 01:22:50;;;;;;;2.80;0.30;;;;;;;13.20;100.00;99550.22;1767420;80;21061;-54
2022/07/21 01:25:19;;;;;;;0.82;0.23;;;;;;;13.19;100.00;99545.77;1761766;79;21349;-54
2022/07/21 01:27:45;;;;;;;2.05;0.30;;;;;;;13.17;100.00;99546.86;1761072;79;21542;-53
2022/07/21 01:30:16;;;;;;;0.90;0.30;;;;;;;13.13;100.00;99541.20;1764710;79;21056;-54
2022/07/21 01:32:43;;;;;;;2.92;0.30;;;;;;;13.12;100.00;99542.17;1762252;79;21545;-55
2022/07/21 01:35:13;;;;;;;2.37;0.30;;;;;;;13.10;100.00;99538.20;1766270;79;21122;-54
2022/07/21 01:37:45;;;;;;;0.85;0.30;;;;;;;13.11;100.00;99537.24;1759951;79;21050;-55
2022/07/21 01:42:57;;;;;;;3.22;0.30;;;;;;;13.15;100.00;99538.84;1762996;79;21080;-55
2022/07/21 01:45:24;;;;;;;1.27;0.20;;;;;;;13.17;100.00;99537.40;1767324;79;21064;-55
2022/07/21 01:47:50;;;;;;;4.87;0.30;;;;;;;13.14;100.00;99533.52;1784960;78;21550;-55
2022/07/21 01:50:20;;;;;;;0.28;0.20;;;;;;;13.12;100.00;99536.28;1749434;80;21054;-55
2022/07/21 01:52:47;;;;;;;0.35;0.20;;;;;;;13.10;100.00;99531.45;1788467;78;21092;-55
2022/07/21 01:55:13;;;;;;;1.00;0.28;;;;;;;13.06;100.00;99530.39;1784425;78;21088;-56
2022/07/21 01:57:40;;;;;;;0.25;0.20;;;;;;;13.01;100.00;99526.64;1781793;78;21080;-54
2022/07/21 02:00:08;;;;;;;1.60;0.23;;;;;;;12.97;100.00;99525.56;1765649;79;22051;-53
2022/07/21 02:02:35;;;;;;;0.40;0.20;;;;;;;12.94;100.00;99527.08;1768587;79;21072;-52
2022/07/21 02:05:01;;;;;;;1.67;0.30;;;;;;;12.93;100.00;99528.08;1770365;79;21344;-55
2022/07/21 02:07:29;;;;;;;6.35;0.30;;;;;;;12.91;100.00;99524.11;1764625;79;21075;-54
2022/07/21 02:09:55;;;;;;;1.52;0.30;;;;;;;12.92;100.00;99533.09;1763694;79;21677;-54
2022/07/21 02:12:23;;;;;;;0.50;0.30;;;;;;;12.89;100.00;99517.45;1762273;79;22724;-54
2022/07/21 02:14:50;;;;;;;1.75;0.30;;;;;;;12.88;100.00;99522.94;1764402;79;21542;-54
2022/07/21 02:17:17;;;;;;;2.90;0.30;;;;;;;12.85;100.00;99526.69;1764890;79;21079;-54
2022/07/21 02:19:45;;;;;;;3.45;0.30;;;;;;;12.82;100.00;99524.67;1763611;79;21123;-55
2022/07/21 02:22:11;;;;;;;0.40;0.25;;;;;;;12.78;100.00;99528.50;1767295;79;21542;-53
2022/07/21 02:24:40;;;;;;;1.57;0.30;;;;;;;12.71;100.00;99526.66;1763997;79;21145;-55
2022/07/21 02:27:08;;;;;;;1.87;0.30;;;;;;;12.68;100.00;99525.48;1754720;80;21068;-53
2022/07/21 02:29:35;;;;;;;1.22;0.30;;;;;;;12.69;100.00;99525.88;1757517;79;21085;-53
2022/07/21 02:32:01;;;;;;;1.27;0.20;;;;;;;12.72;100.00;99530.23;1754777;79;21551;-54
2022/07/21 02:34:29;;;;;;;1.02;0.28;;;;;;;12.72;100.00;99521.66;1781704;78;21215;-51
2022/07/21 02:36:55;;;;;;;1.30;0.30;;;;;;;12.74;100.00;99525.62;1745271;81;21437;-51
2022/07/21 02:39:22;;;;;;;3.17;0.30;;;;;;;12.76;100.00;99523.19;1780257;79;21520;-51
2022/07/21 02:41:48;;;;;;;0.30;0.20;;;;;;;12.78;100.00;99517.22;1777166;79;21351;-52
2022/07/21 02:44:15;;;;;;;0.62;0.30;;;;;;;12.83;100.00;99513.78;1739597;80;21053;-51
2022/07/21 02:46:41;;;;;;;1.52;0.30;;;;;;;12.84;100.00;99516.84;1746224;80;21092;-52
2022/07/21 02:49:08;;;;;;;1.62;0.30;;;;;;;12.86;100.00;99520.80;1750718;80;21574;-53
2022/07/21 02:51:34;;;;;;;0.40;0.28;;;;;;;12.84;100.00;99522.24;1774821;78;21025;-51
2022/07/21 02:54:02;;;;;;;1.95;0.28;;;;;;;12.83;100.00;99515.13;1780025;78;21030;-51
2022/07/21 02:56:29;;;;;;;2.15;0.30;;;;;;;12.82;100.00;99516.09;1784056;78;21053;-54
2022/07/21 02:58:55;;;;;;;3.72;0.30;;;;;;;12.81;100.00;99521.58;1774047;78;21352;-52
2022/07/21 03:01:22;;;;;;;1.05;0.23;;;;;;;12.79;100.00;99522.14;1737365;80;21599;-51
2022/07/21 03:03:48;;;;;;;0.65;0.30;;;;;;;12.79;100.00;99516.27;1755721;80;21120;-55
2022/07/21 03:06:15;;;;;;;4.17;0.40;;;;;;;12.82;100.00;99506.64;1751896;80;21125;-53
2022/07/21 03:08:42;;;;;;;1.02;0.47;;;;;;;12.87;100.00;99503.64;1752088;80;21135;-53
2022/07/21 03:11:08;;;;;;;0.88;0.30;;;;;;;12.94;100.00;99504.13;1777149;78;21594;-54
2022/07/21 03:13:36;;;;;;;1.30;0.30;;;;;;;13.01;100.00;99508.21;1774389;78;21283;-52
2022/07/21 03:16:03;;;;;;;5.75;0.30;;;;;;;13.08;100.00;99508.21;1776276;79;21108;-55
2022/07/21 03:18:29;;;;;;;2.92;0.40;;;;;;;13.13;100.00;99509.68;1774866;78;21041;-52
2022/07/21 03:20:56;;;;;;;2.67;0.30;;;;;;;13.18;100.00;99508.90;1781506;78;21095;-51
2022/07/21 03:23:24;;;;;;;0.50;0.30;;;;;;;13.23;100.00;99503.22;1752359;80;21083;-51
2022/07/21 03:25:51;;;;;;;0.90;0.30;;;;;;;13.27;100.00;99502.05;1749426;80;21185;-51
2022/07/21 03:28:18;;;;;;;0.47;0.23;;;;;;;13.32;100.00;99498.59;1787296;78;21040;-52
2022/07/21 03:30:45;;;;;;;0.50;0.28;;;;;;;13.39;100.00;99499.93;1752074;80;21151;-52
2022/07/21 03:33:11;;;;;;;5.25;0.60;;;;;;;13.46;100.00;99493.16;1784379;78;21120;-54
2022/07/21 03:35:38;;;;;;;3.22;0.30;;;;;;;13.55;100.00;99490.34;1780666;78;21035;-51
2022/07/21 03:38:05;;;;;;;1.27;0.30;;;;;;;13.62;100.00;99495.26;1782019;79;21261;-51
2022/07/21 03:40:34;;;;;;;0.57;0.20;;;;;;;13.73;100.00;99499.11;1781296;78;21112;-52
2022/07/21 03:43:02;;;;;;;1.12;0.30;;;;;;;13.82;100.00;99493.97;1767622;79;20979;-50
2022/07/21 03:45:30;;;;;;;0.85;0.30;;;;;;;13.90;100.00;99494.34;1759730;80;21081;-50
2022/07/21 03:47:58;;;;;;;0.55;0.30;;;;;;;13.97;100.00;99497.02;1765931;79;21440;-52
2022/07/21 03:50:26;;;;;;;1.95;0.23;;;;;;;14.03;100.00;99497.11;1763502;79;21134;-52
2022/07/21 03:52:53;;;;;;;1.00;0.20;;;;;;;14.08;100.00;99494.95;1763198;79;21092;-53
2022/07/21 03:55:20;;;;;;;0.40;0.20;;;;;;;14.14;100.00;99495.02;1761234;79;21103;-53
2022/07/21 03:57:50;;;;;;;1.65;0.20;;;;;;;14.19;100.00;99501.89;1766536;79;22136;-50
2022/07/21 04:00:27;;;;;;;1.45;0.23;;;;;;;14.25;100.00;99489.77;1765332;79;21455;-53
2022/07/21 04:02:53;;;;;;;0.60;0.17;;;;;;;14.31;100.00;99488.86;1759741;79;21596;-53
2022/07/21 04:05:20;;;;;;;2.77;0.30;;;;;;;14.38;100.00;99481.18;1766303;80;21562;-50
2022/07/21 04:07:48;;;;;;;0.40;0.20;;;;;;;14.46;100.00;99478.02;1766762;79;21103;-53
2022/07/21 04:10:20;;;;;;;0.75;0.20;;;;;;;14.56;100.00;99483.16;1762471;79;21557;-51
2022/07/21 04:12:48;;;;;;;3.22;0.30;;;;;;;14.63;100.00;99483.98;1765068;80;21108;-50
2022/07/21 04:15:15;;;;;;;0.30;0.20;;;;;;;14.71;100.00;99487.54;1763414;79;21140;-51
2022/07/21 04:17:41;;;;;;;0.40;0.28;;;;;;;14.78;100.00;99478.49;1764226;79;21479;-51
2022/07/21 04:20:08;;;;;;;0.98;0.20;;;;;;;14.82;100.00;99475.93;1760839;79;21040;-52
2022/07/21 04:22:36;;;;;;;0.25;0.20;;;;;;;14.86;100.00;99485.11;1780814;78;21527;-51
2022/07/21 04:25:04;;;;;;;0.95;0.30;;;;;;;14.93;100.00;99480.13;1783221;78;21048;-51
2022/07/21 04:27:32;;;;;;;2.80;0.30;;;;;;;15.00;100.00;99483.64;1749684;80;21084;-49
2022/07/21 04:29:59;;;;;;;3.90;0.30;;;;;;;15.06;100.00;99489.11;1746506;80;21123;-51
2022/07/21 04:32:25;;;;;;;0.25;0.15;;;;;;;15.10;100.00;99479.31;1777928;78;21528;-52
2022/07/21 04:34:53;;;;;;;1.27;0.20;;;;;;;15.18;100.00;99480.61;1777177;78;21432;-52
2022/07/21 04:37:20;;;;;;;0.30;0.20;;;;;;;15.26;100.00;99476.86;1780143;78;21061;-52
2022/07/21 04:39:47;;;;;;;1.67;0.20;;;;;;;15.44;100.00;99467.40;1778773;79;21531;-50
2022/07/21 04:42:14;;;;;;;1.15;0.25;;;;;;;15.44;100.00;99467.40;1779883;78;21571;-52
2022/07/21 04:44:41;;;;;;;2.58;0.25;;;;;;;15.60;100.00;99476.19;1748730;80;21168;-52
2022/07/21 04:47:07;;;;;;;0.40;0.20;;;;;;;15.60;100.00;99476.19;1758714;79;21056;-52
2022/07/21 04:49:35;;;;;;;6.53;0.30;;;;;;;15.69;100.00;99478.71;1758791;80;21511;-55
2022/07/21 04:52:02;;;;;;;0.50;0.20;;;;;;;15.77;100.00;99481.23;1756957;79;22286;-53
2022/07/21 04:54:29;;;;;;;0.53;0.20;;;;;;;15.85;100.00;99487.45;1755888;80;20986;-53
2022/07/21 04:56:55;;;;;;;2.85;0.30;;;;;;;15.92;100.00;99495.51;1754885;79;21187;-53
2022/07/21 20:05:32;;;;;;;1.00;0.85;;;;;;;22.68;100.00;99183.89;1794290;78;28103;-53
2022/07/21 20:08:00;;;;;;;0.93;0.80;;;;;;;22.37;100.00;99188.50;1776407;79;21048;-53
2022/07/21 20:10:30;;;;;;;5.47;1.55;;;;;;;22.16;100.00;99187.53;1777090;79;21259;-52
2022/07/21 20:12:56;;;;;;;2.17;0.90;;;;;;;22.01;100.00;99185.04;1713398;81;20989;-54
2022/07/21 20:15:23;;;;;;;0.93;0.70;;;;;;;21.88;100.00;99190.02;1716107;82;21590;-55
2022/07/21 20:17:50;;;;;;;1.37;1.10;;;;;;;21.75;100.00;99189.59;1721498;82;20998;-54
2022/07/21 20:20:18;;;;;;;2.30;0.98;;;;;;;21.61;100.00;99187.38;1717722;82;20950;-53
2022/07/21 20:22:45;;;;;;;0.90;0.80;;;;;;;21.46;100.00;99189.31;1715044;82;21566;-53
2022/07/21 20:25:11;;;;;;;1.80;0.70;;;;;;;21.36;100.00;99199.48;1719528;82;20914;-54
2022/07/21 20:27:38;;;;;;;1.35;0.88;;;;;;;21.25;100.00;99207.08;1710725;81;21017;-53
2022/07/21 20:30:06;;;;;;;0.85;0.70;;;;;;;21.13;100.00;99203.14;1716930;82;21080;-54
2022/07/21 20:32:32;;;;;;;0.70;0.70;;;;;;;21.02;100.00;99203.86;1718261;81;21121;-55
2022/07/21 20:34:59;;;;;;;2.15;0.62;;;;;;;20.94;100.00;99199.66;1716467;82;21153;-55
2022/07/21 20:37:25;;;;;;;0.60;0.60;;;;;;;20.85;100.00;99196.47;1717152;81;21665;-54
2022/07/21 20:39:52;;;;;;;2.08;0.80;;;;;;;20.80;100.00;99206.52;1714463;81;21063;-54
2022/07/21 20:42:18;;;;;;;1.10;0.80;;;;;;;20.74;100.00;99204.39;1727985;82;21605;-53
2022/07/21 20:44:45;;;;;;;1.45;0.60;;;;;;;20.70;100.00;99198.35;1728336;82;21527;-54
2022/07/21 20:47:13;;;;;;;0.75;0.70;;;;;;;20.68;100.00;99204.97;1729020;82;22812;-55
2022/07/21 20:49:40;;;;;;;2.42;0.90;;;;;;;20.66;100.00;99203.78;1730250;82;22045;-54
2022/07/21 20:52:06;;;;;;;0.65;0.65;;;;;;;20.62;100.00;99196.02;1731814;82;20966;-53
2022/07/21 20:54:33;;;;;;;0.70;0.70;;;;;;;20.57;100.00;99198.36;1742832;81;20886;-55
2022/07/21 20:56:59;;;;;;;3.37;0.70;;;;;;;20.53;100.00;99190.08;1720532;81;20950;-53
2022/07/21 20:59:26;;;;;;;2.15;0.68;;;;;;;20.50;100.00;99194.50;1734400;81;21424;-52
2022/07/21 21:01:53;;;;;;;1.00;0.60;;;;;;;20.46;100.00;99192.56;1731421;81;20902;-53
2022/07/21 21:04:21;;;;;;;2.33;0.60;;;;;;;20.44;100.00;99204.14;1730294;81;21526;-54
2022/07/21 21:06:47;;;;;;;0.70;0.70;;;;;;;20.42;100.00;99198.46;1758217;80;20935;-54
2022/07/21 21:09:14;;;;;;;0.80;0.60;;;;;;;20.41;100.00;99197.62;1758410;80;20903;-53
2022/07/21 21:11:42;;;;;;;1.45;0.60;;;;;;;20.39;100.00;99193.67;1753347;80;22242;-54
2022/07/21 21:14:08;;;;;;;1.10;0.68;;;;;;;20.42;100.00;99198.46;1755436;80;20958;-55
2022/07/21 21:16:34;;;;;;;1.45;0.62;;;;;;;20.42;100.00;99202.05;1756548;80;20947;-53
2022/07/21 21:19:01;;;;;;;1.72;0.60;;;;;;;20.45;100.00;99209.97;1754167;80;20907;-53
2022/07/21 21:21:28;;;;;;;0.90;0.60;;;;;;;20.45;100.00;99203.64;1753616;80;20959;-54
2022/07/21 21:23:55;;;;;;;1.27;0.60;;;;;;;20.44;100.00;99204.65;1750307;80;21507;-52
2022/07/21 21:26:21;;;;;;;1.50;0.68;;;;;;;20.42;100.00;99210.26;1752418;80;21031;-54
2022/07/21 21:28:48;;;;;;;0.70;0.70;;;;;;;20.38;100.00;99200.15;1752094;79;21037;-54
2022/07/21 21:31:14;;;;;;;1.00;0.70;;;;;;;20.34;100.00;99200.07;1751163;80;21113;-53
2022/07/21 21:33:41;;;;;;;1.57;0.70;;;;;;;20.31;100.00;99200.86;1750628;80;21468;-54
2022/07/21 21:36:08;;;;;;;2.02;0.78;;;;;;;20.27;100.00;99191.22;1758041;81;21183;-54
2022/07/21 21:38:35;;;;;;;2.45;0.70;;;;;;;20.24;100.00;99199.73;1752455;80;21039;-56
2022/07/21 21:41:02;;;;;;;1.85;0.70;;;;;;;20.22;100.00;99198.52;1752551;80;21070;-54
2022/07/21 21:43:28;;;;;;;0.95;0.70;;;;;;;20.24;100.00;99194.27;1751385;80;21101;-54
2022/07/21 21:45:55;;;;;;;0.80;0.78;;;;;;;20.26;100.00;99192.23;1753215;80;21050;-52
2022/07/21 21:48:22;;;;;;;2.02;0.80;;;;;;;20.27;100.00;99190.72;1756324;81;21386;-52
2022/07/21 21:50:48;;;;;;;0.93;0.75;;;;;;;20.24;100.00;99186.94;1752918;80;21432;-52
2022/07/21 21:53:15;;;;;;;1.42;0.80;;;;;;;20.21;100.00;99189.95;1754910;80;21418;-55
2022/07/21 21:55:42;;;;;;;1.00;0.70;;;;;;;20.17;100.00;99192.61;1756646;79;21058;-53
2022/07/21 21:58:08;;;;;;;1.00;0.70;;;;;;;20.13;100.00;99187.11;1752434;80;21457;-54
2022/07/21 22:00:35;;;;;;;1.47;0.80;;;;;;;20.12;100.00;99187.25;1754545;81;21144;-55
2022/07/21 22:03:02;;;;;;;2.62;0.85;;;;;;;20.10;100.00;99197.45;1756273;81;21022;-51
2022/07/21 22:05:28;;;;;;;1.15;0.80;;;;;;;20.09;100.00;99191.63;1754893;81;21295;-52
2022/07/21 22:07:56;;;;;;;0.82;0.80;;;;;;;20.08;100.00;99198.09;1753750;80;21494;-55
2022/07/21 22:10:22;;;;;;;3.83;1.35;;;;;;;20.05;100.00;99199.28;1755695;81;21041;-55
2022/07/21 22:12:49;;;;;;;1.65;0.90;;;;;;;20.01;100.00;99193.73;1755271;80;21730;-54
2022/07/21 22:15:16;;;;;;;1.57;1.00;;;;;;;19.94;100.00;99199.44;1754745;81;21544;-52
2022/07/21 22:17:43;;;;;;;1.55;1.00;;;;;;;19.90;100.00;99199.39;1751742;81;21089;-53
2022/07/21 22:20:10;;;;;;;2.25;0.80;;;;;;;19.83;100.00;99202.31;1752818;80;22247;-51
2022/07/21 22:22:37;;;;;;;2.37;0.88;;;;;;;19.77;100.00;99201.54;1756450;81;21081;-54
2022/07/21 22:25:06;;;;;;;3.08;1.15;;;;;;;19.72;100.00;99206.59;1754208;81;21221;-53
2022/07/21 22:27:34;;;;;;;3.52;1.00;;;;;;;19.65;100.00;99207.14;1755808;81;21046;-54
2022/07/21 22:30:07;;;;;;;1.50;1.32;;;;;;;19.61;100.00;99207.59;1757524;80;21101;-54
2022/07/21 22:32:33;;;;;;;1.00;0.90;;;;;;;19.59;100.00;99199.54;1749820;81;21149;-53
2022/07/21 22:35:00;;;;;;;1.10;0.90;;;;;;;19.58;100.00;99204.64;1755653;80;21070;-53
2022/07/21 22:37:27;;;;;;;2.83;1.00;;;;;;;19.54;100.00;99204.58;1753121;81;21212;-52
2022/07/21 22:39:54;;;;;;;1.82;0.90;;;;;;;19.53;100.00;99212.41;1749413;81;21030;-54
2022/07/21 22:42:20;;;;;;;1.77;1.00;;;;;;;19.51;100.00;99209.45;1756642;81;21078;-54
2022/07/21 22:44:47;;;;;;;1.80;0.85;;;;;;;19.45;100.00;99209.50;1754632;80;21140;-54
2022/07/21 22:47:13;;;;;;;0.80;0.80;;;;;;;19.41;100.00;99215.37;1756427;80;21149;-55
2022/07/21 22:49:40;;;;;;;1.77;0.90;;;;;;;19.36;100.00;99215.81;1679975;83;21786;-54
2022/07/21 22:52:07;;;;;;;6.50;1.00;;;;;;;19.31;100.00;99219.98;1680524;83;21078;-52
2022/07/21 22:54:33;;;;;;;1.37;0.88;;;;;;;19.26;100.00;99220.39;1694054;83;21072;-53
2022/07/21 22:57:00;;;;;;;1.22;0.90;;;;;;;19.22;100.00;99227.16;1751137;81;21046;-52
2022/07/21 22:59:27;;;;;;;2.92;0.90;;;;;;;19.20;100.00;99223.20;1752660;80;21659;-53
2022/07/21 23:01:54;;;;;;;1.07;0.90;;;;;;;19.19;100.00;99224.70;1753226;80;21359;-52
2022/07/21 23:04:21;;;;;;;1.60;1.02;;;;;;;19.18;100.00;99228.42;1754669;81;20978;-55
2022/07/21 23:06:47;;;;;;;1.27;0.90;;;;;;;19.16;100.00;99227.19;1756940;80;21015;-52
2022/07/21 23:09:15;;;;;;;1.87;0.90;;;;;;;19.12;100.00;99233.95;1748112;81;21067;-53
2022/07/21 23:11:42;;;;;;;0.82;0.80;;;;;;;19.09;100.00;99226.03;1751199;80;21026;-52
2022/07/21 23:14:08;;;;;;;3.35;0.80;;;;;;;19.08;100.00;99228.40;1749637;80;21259;-53
2022/07/21 23:16:35;;;;;;;1.25;0.80;;;;;;;19.09;100.00;99231.98;1745354;80;21038;-53
2022/07/21 23:19:02;;;;;;;2.08;0.85;;;;;;;19.06;100.00;99230.40;1750383;79;21038;-54
2022/07/21 23:21:28;;;;;;;1.10;0.90;;;;;;;19.05;100.00;99238.75;1748335;81;21557;-53
2022/07/21 23:23:55;;;;;;;1.57;0.88;;;;;;;19.04;100.00;99241.11;1753070;80;22099;-52
2022/07/21 23:26:21;;;;;;;1.00;0.90;;;;;;;19.02;100.00;99233.06;1751278;79;21071;-51
2022/07/21 23:28:48;;;;;;;2.25;0.70;;;;;;;19.00;100.00;99239.14;1750199;81;21516;-51
2022/07/21 23:31:16;;;;;;;3.08;1.10;;;;;;;18.98;100.00;99247.09;1749915;81;21157;-53
2022/07/21 23:33:44;;;;;;;2.55;0.90;;;;;;;18.92;100.00;99239.48;1750254;81;21042;-52
2022/07/21 23:36:10;;;;;;;2.10;1.25;;;;;;;18.88;100.00;99241.11;1755157;80;21129;-53
2022/07/21 23:38:38;;;;;;;2.12;1.00;;;;;;;18.84;100.00;99242.41;1752782;80;21202;-53
2022/07/21 23:41:05;;;;;;;2.90;1.30;;;;;;;18.80;100.00;99245.03;1753251;80;21089;-53
2022/07/21 23:43:32;;;;;;;1.70;1.00;;;;;;;18.77;100.00;99241.73;1753033;80;21014;-53
2022/07/21 23:45:59;;;;;;;0.82;0.82;;;;;;;18.74;100.00;99244.23;1751443;80;21078;-52
2022/07/21 23:48:26;;;;;;;1.53;1.00;;;;;;;18.74;100.00;99241.50;1756844;80;21548;-55
2022/07/21 23:50:52;;;;;;;2.85;0.80;;;;;;;18.71;100.00;99246.39;1751187;81;21560;-53
2022/07/21 23:53:19;;;;;;;2.05;0.90;;;;;;;18.67;100.00;99244.42;1752782;80;21042;-54
2022/07/21 23:55:46;;;;;;;2.37;0.80;;;;;;;18.65;100.00;99249.14;1749930;81;21089;-53
2022/07/21 23:58:12;;;;;;;3.47;0.90;;;;;;;18.64;100.00;99245.18;1745607;80;21048;-53
